sensor_id;sensor_type;location;lat;lon;timestamp;pressure;altitude;pressure_sealevel;temperature;humidity
14800;BME280;7491;57.750;11.970;2022-07-11T00:00:03;75914.97;;;-142.11;100.00
14800;BME280;7491;57.750;11.970;2022-07-11T00:02:29;75908.88;;;-142.11;100.00
14800;BME280;7491;57.750;11.970;2022-07-11T00:04:58;75927.22;;;-142.11;100.00
14800;BME280;7491;57.750;11.970;2022-07-11T00:07:24;75914.97;;;-142.11;100.00
14800;BME280;7491;57.750;11.970;2022-07-11T00:09:51;75921.09;;;-142.11;100.00
14800;BME280;7491;57.750;11.970;2022-07-11T00:12:17;75925.16;;;-142.11;100.00
14800;BME280;7491;57.750;11.970;2022-07-11T00:14:46;75943.50;;;-142.11;100.00
14800;BME280;7491;57.750;11.970;2022-07-11T00:17:12;75955.75;;;-142.11;100.00
14800;BME280;7491;57.750;11.970;2022-07-11T00:19:39;75972.06;;;-142.11;100.00
14800;BME280;7491;57.750;11.970;2022-07-11T00:22:07;75955.75;;;-142.11;100.00
14800;BME280;7491;57.750;11.970;2022-07-11T00:24:34;75972.06;;;-142.11;100.00
14800;BME280;7491;57.750;11.970;2022-07-11T00:27:01;75955.75;;;-142.11;100.00
14800;BME280;7491;57.750;11.970;2022-07-11T00:29:28;75951.66;;;-142.11;100.00
14800;BME280;7491;57.750;11.970;2022-07-11T00:31:55;75955.75;;;-142.11;100.00
14800;BME280;7491;57.750;11.970;2022-07-11T00:34:22;75951.66;;;-142.11;100.00
14800;BME280;7491;57.750;11.970;2022-07-11T00:36:48;75955.75;;;-142.11;100.00
14800;BME280;7491;57.750;11.970;2022-07-11T00:39:16;75955.75;;;-142.11;100.00
14800;BME280;7491;57.750;11.970;2022-07-11T00:41:43;75953.72;;;-142.11;100.00
14800;BME280;7491;57.750;11.970;2022-07-11T00:44:10;75953.72;;;-142.11;100.00
14800;BME280;7491;57.750;11.970;2022-07-11T00:46:36;75980.22;;;-142.11;100.00
14800;BME280;7491;57.750;11.970;2022-07-11T00:49:03;75988.34;;;-142.11;100.00
14800;BME280;7491;57.750;11.970;2022-07-11T00:51:30;75984.28;;;-142.11;100.00
14800;BME280;7491;57.750;11.970;2022-07-11T00:53:58;75988.34;;;-142.11;100.00
14800;BME280;7491;57.750;11.970;2022-07-11T00:56:27;75986.31;;;-142.11;100.00
14800;BME280;7491;57.750;11.970;2022-07-11T00:58:57;75992.44;;;-142.11;100.00
14800;BME280;7491;57.750;11.970;2022-07-11T01:01:24;76006.72;;;-142.11;100.00
14800;BME280;7491;57.750;11.970;2022-07-11T01:03:51;75998.56;;;-142.11;100.00
14800;BME280;7491;57.750;11.970;2022-07-11T01:06:18;76002.63;;;-142.11;100.00
14800;BME280;7491;57.750;11.970;2022-07-11T01:08:44;76012.81;;;-142.11;100.00
14800;BME280;7491;57.750;11.970;2022-07-11T01:11:12;76004.66;;;-142.11;100.00
14800;BME280;7491;57.750;11.970;2022-07-11T01:13:43;76008.75;;;-142.11;100.00
14800;BME280;7491;57.750;11.970;2022-07-11T01:16:12;76004.66;;;-142.11;100.00
14800;BME280;7491;57.750;11.970;2022-07-11T01:18:40;76010.78;;;-142.11;100.00
14800;BME280;7491;57.750;11.970;2022-07-11T01:21:18;76018.94;;;-142.11;100.00
14800;BME280;7491;57.750;11.970;2022-07-11T01:23:49;76029.13;;;-142.11;100.00
14800;BME280;7491;57.750;11.970;2022-07-11T01:26:19;76027.09;;;-142.11;100.00
14800;BME280;7491;57.750;11.970;2022-07-11T01:28:46;76020.97;;;-142.11;100.00
14800;BME280;7491;57.750;11.970;2022-07-11T01:31:13;76027.09;;;-142.11;100.00
14800;BME280;7491;57.750;11.970;2022-07-11T01:33:40;76023.00;;;-142.11;100.00
14800;BME280;7491;57.750;11.970;2022-07-11T01:36:07;76023.00;;;-142.11;100.00
14800;BME280;7491;57.750;11.970;2022-07-11T01:38:34;76016.91;;;-142.11;100.00
14800;BME280;7491;57.750;11.970;2022-07-11T01:41:02;76012.81;;;-142.11;100.00
14800;BME280;7491;57.750;11.970;2022-07-11T01:43:29;76012.81;;;-142.11;100.00
14800;BME280;7491;57.750;11.970;2022-07-11T01:45:56;76014.84;;;-142.11;100.00
14800;BME280;7491;57.750;11.970;2022-07-11T01:48:23;76010.78;;;-142.11;100.00
14800;BME280;7491;57.750;11.970;2022-07-11T01:50:50;76016.91;;;-142.11;100.00
14800;BME280;7491;57.750;11.970;2022-07-11T01:53:16;76020.97;;;-142.11;100.00
14800;BME280;7491;57.750;11.970;2022-07-11T01:55:43;76025.06;;;-142.11;100.00
14800;BME280;7491;57.750;11.970;2022-07-11T01:58:11;76027.09;;;-142.11;100.00
14800;BME280;7491;57.750;11.970;2022-07-11T02:00:38;76033.22;;;-142.11;100.00
14800;BME280;7491;57.750;11.970;2022-07-11T02:03:05;76041.34;;;-142.11;100.00
14800;BME280;7491;57.750;11.970;2022-07-11T02:05:31;76039.31;;;-142.11;100.00
14800;BME280;7491;57.750;11.970;2022-07-11T02:07:58;76043.41;;;-142.11;100.00
14800;BME280;7491;57.750;11.970;2022-07-11T02:10:44;76067.84;;;-142.11;100.00
14800;BME280;7491;57.750;11.970;2022-07-11T02:13:15;76057.66;;;-142.11;100.00
14800;BME280;7491;57.750;11.970;2022-07-11T02:15:43;76055.63;;;-142.11;100.00
14800;BME280;7491;57.750;11.970;2022-07-11T02:18:10;76053.59;;;-142.11;100.00
14800;BME280;7491;57.750;11.970;2022-07-11T02:20:37;76047.47;;;-142.11;100.00
14800;BME280;7491;57.750;11.970;2022-07-11T02:23:05;76049.50;;;-142.11;100.00
14800;BME280;7491;57.750;11.970;2022-07-11T02:25:32;76055.63;;;-142.11;100.00
14800;BME280;7491;57.750;11.970;2022-07-11T02:28:00;76047.47;;;-142.11;100.00
14800;BME280;7491;57.750;11.970;2022-07-11T02:30:29;76047.47;;;-142.11;100.00
14800;BME280;7491;57.750;11.970;2022-07-11T02:32:55;76043.41;;;-142.11;100.00
14800;BME280;7491;57.750;11.970;2022-07-11T02:35:22;76033.22;;;-142.11;100.00
14800;BME280;7491;57.750;11.970;2022-07-11T02:37:49;76033.22;;;-142.11;100.00
14800;BME280;7491;57.750;11.970;2022-07-11T02:40:15;76037.28;;;-142.11;100.00
14800;BME280;7491;57.750;11.970;2022-07-11T02:42:42;76025.06;;;-142.11;100.00
14800;BME280;7491;57.750;11.970;2022-07-11T02:45:09;76029.13;;;-142.11;100.00
14800;BME280;7491;57.750;11.970;2022-07-11T02:47:38;76027.09;;;-142.11;100.00
14800;BME280;7491;57.750;11.970;2022-07-11T02:50:07;76023.00;;;-142.11;100.00
14800;BME280;7491;57.750;11.970;2022-07-11T02:52:34;76016.91;;;-142.11;100.00
14800;BME280;7491;57.750;11.970;2022-07-11T02:55:01;76025.06;;;-142.11;100.00
14800;BME280;7491;57.750;11.970;2022-07-11T02:57:28;76031.16;;;-142.11;100.00
14800;BME280;7491;57.750;11.970;2022-07-11T02:59:55;76037.28;;;-142.11;100.00
14800;BME280;7491;57.750;11.970;2022-07-11T03:02:21;76043.41;;;-142.11;100.00
14800;BME280;7491;57.750;11.970;2022-07-11T03:04:50;76047.47;;;-142.11;100.00
14800;BME280;7491;57.750;11.970;2022-07-11T03:07:17;76047.47;;;-142.11;100.00
14800;BME280;7491;57.750;11.970;2022-07-11T03:09:43;76039.31;;;-142.11;100.00
14800;BME280;7491;57.750;11.970;2022-07-11T03:12:10;76029.13;;;-142.11;100.00
14800;BME280;7491;57.750;11.970;2022-07-11T03:14:37;76020.97;;;-142.11;100.00
14800;BME280;7491;57.750;11.970;2022-07-11T03:17:04;76020.97;;;-142.11;100.00
14800;BME280;7491;57.750;11.970;2022-07-11T03:19:30;76012.81;;;-142.11;100.00
14800;BME280;7491;57.750;11.970;2022-07-11T03:21:58;76010.78;;;-142.11;100.00
14800;BME280;7491;57.750;11.970;2022-07-11T03:24:25;76010.78;;;-142.11;100.00
14800;BME280;7491;57.750;11.970;2022-07-11T03:26:53;76000.59;;;-142.11;100.00
14800;BME280;7491;57.750;11.970;2022-07-11T03:29:20;75998.56;;;-142.11;100.00
14800;BME280;7491;57.750;11.970;2022-07-11T03:31:46;75996.50;;;-142.11;100.00
14800;BME280;7491;57.750;11.970;2022-07-11T03:34:13;75988.34;;;-142.11;100.00
14800;BME280;7491;57.750;11.970;2022-07-11T03:36:40;75982.25;;;-142.11;100.00
14800;BME280;7491;57.750;11.970;2022-07-11T03:39:08;75982.25;;;-142.11;100.00
14800;BME280;7491;57.750;11.970;2022-07-11T03:41:34;75988.34;;;-142.11;100.00
14800;BME280;7491;57.750;11.970;2022-07-11T03:44:01;75984.28;;;-142.11;100.00
14800;BME280;7491;57.750;11.970;2022-07-11T03:46:27;75982.25;;;-142.11;100.00
14800;BME280;7491;57.750;11.970;2022-07-11T03:48:54;75963.91;;;-142.11;100.00
14800;BME280;7491;57.750;11.970;2022-07-11T03:51:21;75955.75;;;-142.11;100.00
14800;BME280;7491;57.750;11.970;2022-07-11T03:53:47;75951.66;;;-142.11;100.00
14800;BME280;7491;57.750;11.970;2022-07-11T03:56:16;75945.56;;;-142.11;100.00
14800;BME280;7491;57.750;11.970;2022-07-11T03:58:47;75935.38;;;-142.11;100.00
14800;BME280;7491;57.750;11.970;2022-07-11T04:01:14;75929.25;;;-142.11;100.00
14800;BME280;7491;57.750;11.970;2022-07-11T04:03:41;75923.13;;;-142.11;100.00
14800;BME280;7491;57.750;11.970;2022-07-11T04:06:08;75914.97;;;-142.11;100.00
14800;BME280;7491;57.750;11.970;2022-07-11T04:08:34;75912.94;;;-142.11;100.00
14800;BME280;7491;57.750;11.970;2022-07-11T04:11:01;75910.91;;;-142.11;100.00
14800;BME280;7491;57.750;11.970;2022-07-11T04:13:29;75886.44;;;-142.11;100.00
14800;BME280;7491;57.750;11.970;2022-07-11T04:15:56;75876.25;;;-142.11;100.00
14800;BME280;7491;57.750;11.970;2022-07-11T04:18:23;75876.25;;;-142.11;100.00
14800;BME280;7491;57.750;11.970;2022-07-11T04:20:50;75866.06;;;-142.11;100.00
14800;BME280;7491;57.750;11.970;2022-07-11T04:23:16;75855.88;;;-142.11;100.00
14800;BME280;7491;57.750;11.970;2022-07-11T04:25:43;75847.72;;;-142.11;100.00
14800;BME280;7491;57.750;11.970;2022-07-11T04:28:10;75847.72;;;-142.11;100.00
14800;BME280;7491;57.750;11.970;2022-07-11T04:30:38;75837.53;;;-142.11;100.00
14800;BME280;7491;57.750;11.970;2022-07-11T04:33:05;75831.41;;;-142.11;100.00
14800;BME280;7491;57.750;11.970;2022-07-11T04:35:32;75823.25;;;-142.11;100.00
14800;BME280;7491;57.750;11.970;2022-07-11T04:37:58;75821.22;;;-142.11;100.00
14800;BME280;7491;57.750;11.970;2022-07-11T04:40:25;75829.38;;;-142.11;100.00
14800;BME280;7491;57.750;11.970;2022-07-11T04:42:52;75829.38;;;-142.11;100.00
14800;BME280;7491;57.750;11.970;2022-07-11T04:45:19;75817.13;;;-142.11;100.00
14800;BME280;7491;57.750;11.970;2022-07-11T04:47:48;75788.59;;;-142.11;100.00
14800;BME280;7491;57.750;11.970;2022-07-11T04:50:14;75772.28;;;-142.11;100.00
14800;BME280;7491;57.750;11.970;2022-07-11T04:52:41;75778.41;;;-142.11;100.00
14800;BME280;7491;57.750;11.970;2022-07-11T04:55:09;75758.03;;;-142.11;100.00
14800;BME280;7491;57.750;11.970;2022-07-11T04:57:38;75735.59;;;-142.11;100.00
14800;BME280;7491;57.750;11.970;2022-07-11T05:00:06;75717.25;;;-142.11;100.00
14800;BME280;7491;57.750;11.970;2022-07-11T05:02:33;75723.38;;;-142.11;100.00
14800;BME280;7491;57.750;11.970;2022-07-11T05:05:03;75692.81;;;-142.11;100.00
14800;BME280;7491;57.750;11.970;2022-07-11T05:07:40;75684.66;;;-142.11;100.00
14800;BME280;7491;57.750;11.970;2022-07-11T05:10:08;75676.50;;;-142.11;100.00
14800;BME280;7491;57.750;11.970;2022-07-11T05:12:35;75670.38;;;-142.11;100.00
14800;BME280;7491;57.750;11.970;2022-07-11T05:15:02;75650.00;;;-142.11;100.00
14800;BME280;7491;57.750;11.970;2022-07-11T05:17:29;75631.66;;;-142.11;100.00
14800;BME280;7491;57.750;11.970;2022-07-11T05:19:55;75605.16;;;-142.11;100.00
14800;BME280;7491;57.750;11.970;2022-07-11T05:22:24;75586.81;;;-142.11;100.00
14800;BME280;7491;57.750;11.970;2022-07-11T05:24:51;75572.56;;;-142.11;100.00
14800;BME280;7491;57.750;11.970;2022-07-11T05:27:17;75562.34;;;-142.11;100.00
14800;BME280;7491;57.750;11.970;2022-07-11T05:29:44;75548.09;;;-142.11;100.00
14800;BME280;7491;57.750;11.970;2022-07-11T05:32:11;75537.91;;;-142.11;100.00
14800;BME280;7491;57.750;11.970;2022-07-11T05:34:38;75527.72;;;-142.11;100.00
14800;BME280;7491;57.750;11.970;2022-07-11T05:37:05;75515.47;;;-142.11;100.00
14800;BME280;7491;57.750;11.970;2022-07-11T05:39:33;75513.44;;;-142.11;100.00
14800;BME280;7491;57.750;11.970;2022-07-11T05:42:01;75472.69;;;-142.11;100.00
14800;BME280;7491;57.750;11.970;2022-07-11T05:44:27;75454.34;;;-142.11;100.00
14800;BME280;7491;57.750;11.970;2022-07-11T05:46:58;75436.00;;;-142.11;100.00
14800;BME280;7491;57.750;11.970;2022-07-11T05:49:25;75415.63;;;-142.11;100.00
14800;BME280;7491;57.750;11.970;2022-07-11T05:51:52;75403.38;;;-142.11;100.00
14800;BME280;7491;57.750;11.970;2022-07-11T05:54:19;75395.25;;;-142.11;100.00
14800;BME280;7491;57.750;11.970;2022-07-11T05:56:47;75391.16;;;-142.11;100.00
14800;BME280;7491;57.750;11.970;2022-07-11T05:59:14;75366.72;;;-142.11;100.00
14800;BME280;7491;57.750;11.970;2022-07-11T06:01:40;75366.72;;;-142.11;100.00
14800;BME280;7491;57.750;11.970;2022-07-11T06:04:07;75362.63;;;-142.11;100.00
14800;BME280;7491;57.750;11.970;2022-07-11T06:06:34;75360.59;;;-142.11;100.00
14800;BME280;7491;57.750;11.970;2022-07-11T06:09:01;75350.41;;;-142.11;100.00
14800;BME280;7491;57.750;11.970;2022-07-11T06:11:28;75344.28;;;-142.11;100.00
14800;BME280;7491;57.750;11.970;2022-07-11T06:13:57;75344.28;;;-142.11;100.00
14800;BME280;7491;57.750;11.970;2022-07-11T06:16:23;75336.13;;;-142.11;100.00
14800;BME280;7491;57.750;11.970;2022-07-11T06:18:50;75332.06;;;-142.11;100.00
14800;BME280;7491;57.750;11.970;2022-07-11T06:21:17;75323.91;;;-142.11;100.00
14800;BME280;7491;57.750;11.970;2022-07-11T06:23:44;75332.06;;;-142.11;100.00
14800;BME280;7491;57.750;11.970;2022-07-11T06:26:11;75330.03;;;-142.11;100.00
14800;BME280;7491;57.750;11.970;2022-07-11T06:28:40;75336.13;;;-142.11;100.00
14800;BME280;7491;57.750;11.970;2022-07-11T06:31:08;75342.25;;;-142.11;100.00
14800;BME280;7491;57.750;11.970;2022-07-11T06:33:35;75350.41;;;-142.11;100.00
14800;BME280;7491;57.750;11.970;2022-07-11T06:36:02;75352.44;;;-142.11;100.00
14800;BME280;7491;57.750;11.970;2022-07-11T06:38:30;75342.25;;;-142.11;100.00
14800;BME280;7491;57.750;11.970;2022-07-11T06:40:57;75332.06;;;-142.11;100.00
14800;BME280;7491;57.750;11.970;2022-07-11T06:43:23;75325.94;;;-142.11;100.00
14800;BME280;7491;57.750;11.970;2022-07-11T06:45:51;75311.69;;;-142.11;100.00
14800;BME280;7491;57.750;11.970;2022-07-11T06:48:19;75317.78;;;-142.11;100.00
14800;BME280;7491;57.750;11.970;2022-07-11T06:50:46;75311.69;;;-142.11;100.00
14800;BME280;7491;57.750;11.970;2022-07-11T06:53:13;75319.81;;;-142.11;100.00
14800;BME280;7491;57.750;11.970;2022-07-11T06:55:40;75305.56;;;-142.11;100.00
14800;BME280;7491;57.750;11.970;2022-07-11T06:58:07;75303.53;;;-142.11;100.00
14800;BME280;7491;57.750;11.970;2022-07-11T07:00:34;75305.56;;;-142.11;100.00
14800;BME280;7491;57.750;11.970;2022-07-11T07:03:00;75299.44;;;-142.11;100.00
14800;BME280;7491;57.750;11.970;2022-07-11T07:05:28;75293.34;;;-142.11;100.00
14800;BME280;7491;57.750;11.970;2022-07-11T07:07:55;75287.22;;;-142.11;100.00
14800;BME280;7491;57.750;11.970;2022-07-11T07:10:22;75277.03;;;-142.11;100.00
14800;BME280;7491;57.750;11.970;2022-07-11T07:12:50;75272.97;;;-142.11;100.00
14800;BME280;7491;57.750;11.970;2022-07-11T07:15:17;75266.84;;;-142.11;100.00
14800;BME280;7491;57.750;11.970;2022-07-11T07:17:44;75258.69;;;-142.11;100.00
14800;BME280;7491;57.750;11.970;2022-07-11T07:20:11;75250.53;;;-142.11;100.00
14800;BME280;7491;57.750;11.970;2022-07-11T07:22:39;75238.31;;;-142.11;100.00
14800;BME280;7491;57.750;11.970;2022-07-11T07:25:08;75222.00;;;-142.11;100.00
14800;BME280;7491;57.750;11.970;2022-07-11T07:27:35;75232.19;;;-142.11;100.00
14800;BME280;7491;57.750;11.970;2022-07-11T07:30:01;75246.47;;;-142.11;100.00
14800;BME280;7491;57.750;11.970;2022-07-11T07:32:28;75232.19;;;-142.11;100.00
14800;BME280;7491;57.750;11.970;2022-07-11T07:34:55;75219.97;;;-142.11;100.00
14800;BME280;7491;57.750;11.970;2022-07-11T07:37:22;75209.78;;;-142.11;100.00
14800;BME280;7491;57.750;11.970;2022-07-11T07:39:50;75209.78;;;-142.11;100.00
14800;BME280;7491;57.750;11.970;2022-07-11T07:42:16;75191.44;;;-142.11;100.00
14800;BME280;7491;57.750;11.970;2022-07-11T07:44:43;75173.09;;;-142.11;100.00
14800;BME280;7491;57.750;11.970;2022-07-11T07:47:10;75160.88;;;-142.11;100.00
14800;BME280;7491;57.750;11.970;2022-07-11T07:49:36;75160.88;;;-142.11;100.00
14800;BME280;7491;57.750;11.970;2022-07-11T07:52:03;75164.94;;;-142.11;100.00
14800;BME280;7491;57.750;11.970;2022-07-11T07:54:30;75144.56;;;-142.11;100.00
14800;BME280;7491;57.750;11.970;2022-07-11T07:56:58;75099.72;;;-142.11;100.00
14800;BME280;7491;57.750;11.970;2022-07-11T07:59:24;75065.09;;;-142.11;100.00
14800;BME280;7491;57.750;11.970;2022-07-11T08:01:51;75056.94;;;-142.11;100.00
14800;BME280;7491;57.750;11.970;2022-07-11T08:04:18;75044.72;;;-142.11;100.00
14800;BME280;7491;57.750;11.970;2022-07-11T08:06:45;75065.09;;;-142.11;100.00
14800;BME280;7491;57.750;11.970;2022-07-11T08:09:12;75050.81;;;-142.11;100.00
14800;BME280;7491;57.750;11.970;2022-07-11T08:11:38;75050.81;;;-142.11;100.00
14800;BME280;7491;57.750;11.970;2022-07-11T08:14:07;75030.44;;;-142.11;100.00
14800;BME280;7491;57.750;11.970;2022-07-11T08:16:34;75016.19;;;-142.11;100.00
14800;BME280;7491;57.750;11.970;2022-07-11T08:19:02;75028.41;;;-142.11;100.00
14800;BME280;7491;57.750;11.970;2022-07-11T08:21:29;75056.94;;;-142.11;100.00
14800;BME280;7491;57.750;11.970;2022-07-11T08:23:57;75032.47;;;-142.11;100.00
14800;BME280;7491;57.750;11.970;2022-07-11T08:26:24;75024.34;;;-142.11;100.00
14800;BME280;7491;57.750;11.970;2022-07-11T08:28:50;75003.97;;;-142.11;100.00
14800;BME280;7491;57.750;11.970;2022-07-11T08:31:20;75001.91;;;-142.11;100.00
14800;BME280;7491;57.750;11.970;2022-07-11T08:33:47;75018.22;;;-142.11;100.00
14800;BME280;7491;57.750;11.970;2022-07-11T08:36:13;75030.44;;;-142.11;100.00
14800;BME280;7491;57.750;11.970;2022-07-11T08:38:40;75012.09;;;-142.11;100.00
14800;BME280;7491;57.750;11.970;2022-07-11T08:41:12;75014.16;;;-142.11;100.00
14800;BME280;7491;57.750;11.970;2022-07-11T08:43:40;75018.22;;;-142.11;100.00
14800;BME280;7491;57.750;11.970;2022-07-11T08:46:08;75022.28;;;-142.11;100.00
14800;BME280;7491;57.750;11.970;2022-07-11T08:48:37;75032.47;;;-142.11;100.00
14800;BME280;7491;57.750;11.970;2022-07-11T08:51:05;75018.22;;;-142.11;100.00
14800;BME280;7491;57.750;11.970;2022-07-11T08:53:33;75022.28;;;-142.11;100.00
14800;BME280;7491;57.750;11.970;2022-07-11T08:56:04;75010.06;;;-142.11;100.00
14800;BME280;7491;57.750;11.970;2022-07-11T08:58:35;75001.91;;;-142.11;100.00
14800;BME280;7491;57.750;11.970;2022-07-11T09:01:03;74995.81;;;-142.11;100.00
14800;BME280;7491;57.750;11.970;2022-07-11T09:03:30;74993.75;;;-142.11;100.00
14800;BME280;7491;57.750;11.970;2022-07-11T09:05:58;75001.91;;;-142.11;100.00
14800;BME280;7491;57.750;11.970;2022-07-11T09:08:26;75003.97;;;-142.11;100.00
14800;BME280;7491;57.750;11.970;2022-07-11T09:10:53;74999.88;;;-142.11;100.00
14800;BME280;7491;57.750;11.970;2022-07-11T09:13:20;74999.88;;;-142.11;100.00
14800;BME280;7491;57.750;11.970;2022-07-11T09:15:47;74991.72;;;-142.11;100.00
14800;BME280;7491;57.750;11.970;2022-07-11T09:18:31;74991.72;;;-142.11;100.00
14800;BME280;7491;57.750;11.970;2022-07-11T09:21:00;74993.75;;;-142.11;100.00
14800;BME280;7491;57.750;11.970;2022-07-11T09:23:45;74975.44;;;-142.11;100.00
14800;BME280;7491;57.750;11.970;2022-07-11T09:26:30;74965.25;;;-142.11;100.00
14800;BME280;7491;57.750;11.970;2022-07-11T09:29:02;74975.44;;;-142.11;100.00
14800;BME280;7491;57.750;11.970;2022-07-11T09:31:31;74961.16;;;-142.11;100.00
14800;BME280;7491;57.750;11.970;2022-07-11T09:33:59;74946.91;;;-142.11;100.00
14800;BME280;7491;57.750;11.970;2022-07-11T09:36:38;74950.97;;;-142.11;100.00
14800;BME280;7491;57.750;11.970;2022-07-11T09:39:06;74944.84;;;-142.11;100.00
14800;BME280;7491;57.750;11.970;2022-07-11T09:41:34;74924.47;;;-142.11;100.00
14800;BME280;7491;57.750;11.970;2022-07-11T09:44:11;74916.31;;;-142.11;100.00
14800;BME280;7491;57.750;11.970;2022-07-11T09:46:38;74906.13;;;-142.11;100.00
14800;BME280;7491;57.750;11.970;2022-07-11T09:49:05;74898.00;;;-142.11;100.00
14800;BME280;7491;57.750;11.970;2022-07-11T09:51:35;74883.72;;;-142.11;100.00
14800;BME280;7491;57.750;11.970;2022-07-11T09:54:02;74881.69;;;-142.11;100.00
14800;BME280;7491;57.750;11.970;2022-07-11T09:56:39;74853.16;;;-142.11;100.00
14800;BME280;7491;57.750;11.970;2022-07-11T09:59:08;74845.00;;;-142.11;99.55
14800;BME280;7491;57.750;11.970;2022-07-11T10:01:35;74830.75;;;-142.11;99.78
14800;BME280;7491;57.750;11.970;2022-07-11T10:04:28;74816.47;;;-142.11;99.94
14800;BME280;7491;57.750;11.970;2022-07-11T10:07:11;74796.09;;;-142.11;100.00
14800;BME280;7491;57.750;11.970;2022-07-11T10:09:38;74777.75;;;-142.11;99.47
14800;BME280;7491;57.750;11.970;2022-07-11T10:12:05;74765.53;;;-142.11;97.99
14800;BME280;7491;57.750;11.970;2022-07-11T10:14:41;74777.75;;;-142.11;99.73
14800;BME280;7491;57.750;11.970;2022-07-11T10:17:17;74745.16;;;-142.11;100.00
14800;BME280;7491;57.750;11.970;2022-07-11T10:19:56;74747.19;;;-142.11;100.00
14800;BME280;7491;57.750;11.970;2022-07-11T10:22:30;74749.25;;;-142.11;100.00
14800;BME280;7491;57.750;11.970;2022-07-11T10:25:02;74751.28;;;-142.11;100.00
14800;BME280;7491;57.750;11.970;2022-07-11T10:27:36;74792.03;;;-142.11;100.00
14800;BME280;7491;57.750;11.970;2022-07-11T10:30:07;74802.22;;;-142.11;100.00
14800;BME280;7491;57.750;11.970;2022-07-11T10:32:57;74785.91;;;-142.11;100.00
14800;BME280;7491;57.750;11.970;2022-07-11T10:35:29;74800.19;;;-142.11;100.00
14800;BME280;7491;57.750;11.970;2022-07-11T10:37:57;74822.59;;;-142.11;100.00
14800;BME280;7491;57.750;11.970;2022-07-11T10:40:46;74834.81;;;-142.11;100.00
14800;BME280;7491;57.750;11.970;2022-07-11T10:43:15;74822.59;;;-142.11;100.00
14800;BME280;7491;57.750;11.970;2022-07-11T10:45:53;74808.31;;;-142.11;100.00
14800;BME280;7491;57.750;11.970;2022-07-11T10:48:20;74794.06;;;-142.11;100.00
14800;BME280;7491;57.750;11.970;2022-07-11T10:50:53;74775.72;;;-142.11;100.00
14800;BME280;7491;57.750;11.970;2022-07-11T10:53:22;74745.16;;;-142.11;100.00
14800;BME280;7491;57.750;11.970;2022-07-11T10:55:58;74745.16;;;-142.11;100.00
14800;BME280;7491;57.750;11.970;2022-07-11T10:58:30;74757.38;;;-142.11;100.00
14800;BME280;7491;57.750;11.970;2022-07-11T11:01:11;74755.34;;;-142.11;100.00
14800;BME280;7491;57.750;11.970;2022-07-11T11:03:38;74755.34;;;-142.11;100.00
14800;BME280;7491;57.750;11.970;2022-07-11T11:06:06;74779.81;;;-142.11;100.00
14800;BME280;7491;57.750;11.970;2022-07-11T11:08:45;74771.66;;;-142.11;100.00
14800;BME280;7491;57.750;11.970;2022-07-11T11:11:34;74753.31;;;-142.11;100.00
14800;BME280;7491;57.750;11.970;2022-07-11T11:14:21;74755.34;;;-142.11;100.00
14800;BME280;7491;57.750;11.970;2022-07-11T11:16:51;74763.50;;;-142.11;100.00
14800;BME280;7491;57.750;11.970;2022-07-11T11:19:53;74781.84;;;-142.11;100.00
14800;BME280;7491;57.750;11.970;2022-07-11T11:22:22;74777.75;;;-142.11;100.00
14800;BME280;7491;57.750;11.970;2022-07-11T11:24:52;74808.31;;;-142.11;100.00
14800;BME280;7491;57.750;11.970;2022-07-11T11:27:27;74820.56;;;-142.11;100.00
14800;BME280;7491;57.750;11.970;2022-07-11T11:29:58;74812.41;;;-142.11;100.00
14800;BME280;7491;57.750;11.970;2022-07-11T11:32:29;74810.38;;;-142.11;100.00
14800;BME280;7491;57.750;11.970;2022-07-11T11:35:00;74792.03;;;-142.11;100.00
14800;BME280;7491;57.750;11.970;2022-07-11T11:37:27;74779.81;;;-142.11;100.00
14800;BME280;7491;57.750;11.970;2022-07-11T11:40:01;74763.50;;;-142.11;100.00
14800;BME280;7491;57.750;11.970;2022-07-11T11:42:28;74767.56;;;-142.11;100.00
14800;BME280;7491;57.750;11.970;2022-07-11T11:44:58;74800.19;;;-142.11;100.00
14800;BME280;7491;57.750;11.970;2022-07-11T11:47:28;74785.91;;;-142.11;100.00
14800;BME280;7491;57.750;11.970;2022-07-11T11:49:55;74775.72;;;-142.11;100.00
14800;BME280;7491;57.750;11.970;2022-07-11T11:52:22;74802.22;;;-142.11;100.00
14800;BME280;7491;57.750;11.970;2022-07-11T11:54:54;74820.56;;;-142.11;100.00
14800;BME280;7491;57.750;11.970;2022-07-11T11:57:25;74824.63;;;-142.11;100.00
14800;BME280;7491;57.750;11.970;2022-07-11T11:59:52;74847.03;;;-142.11;100.00
14800;BME280;7491;57.750;11.970;2022-07-11T12:02:21;74845.00;;;-142.11;100.00
14800;BME280;7491;57.750;11.970;2022-07-11T12:04:48;74849.09;;;-142.11;100.00
14800;BME280;7491;57.750;11.970;2022-07-11T12:07:21;74863.34;;;-142.11;100.00
14800;BME280;7491;57.750;11.970;2022-07-11T12:09:50;74849.09;;;-142.11;100.00
14800;BME280;7491;57.750;11.970;2022-07-11T12:12:23;74871.50;;;-142.11;100.00
14800;BME280;7491;57.750;11.970;2022-07-11T12:15:22;74857.22;;;-142.11;100.00
14800;BME280;7491;57.750;11.970;2022-07-11T12:17:51;74859.28;;;-142.11;100.00
14800;BME280;7491;57.750;11.970;2022-07-11T12:20:33;74853.16;;;-142.11;100.00
14800;BME280;7491;57.750;11.970;2022-07-11T12:23:00;74838.91;;;-142.11;100.00
14800;BME280;7491;57.750;11.970;2022-07-11T12:25:27;74832.78;;;-142.11;100.00
14800;BME280;7491;57.750;11.970;2022-07-11T12:27:56;74820.56;;;-142.11;100.00
14800;BME280;7491;57.750;11.970;2022-07-11T12:30:23;74842.97;;;-142.11;100.00
14800;BME280;7491;57.750;11.970;2022-07-11T12:33:07;74867.44;;;-142.11;100.00
14800;BME280;7491;57.750;11.970;2022-07-11T12:35:35;74855.19;;;-142.11;100.00
14800;BME280;7491;57.750;11.970;2022-07-11T12:38:03;74869.47;;;-142.11;100.00